createdAt,value
2023-04-15T00:00:18.232Z,0.80
2023-04-15T00:02:48.935Z,0.90
2023-04-15T00:04:59.275Z,1.10
2023-04-15T00:07:09.178Z,0.80
2023-04-15T00:09:19.121Z,2.00
2023-04-15T00:11:28.898Z,0.90
2023-04-15T00:13:38.577Z,0.70
2023-04-15T00:15:48.410Z,0.80
2023-04-15T00:17:58.701Z,0.90
2023-04-15T00:20:09.585Z,1.40
2023-04-15T00:22:19.681Z,0.90
2023-04-15T00:24:29.724Z,1.50
2023-04-15T00:26:39.648Z,4.30
2023-04-15T00:28:49.180Z,2.70
2023-04-15T00:30:59.114Z,1.50
2023-04-15T00:33:09.596Z,3.00
2023-04-15T00:35:19.343Z,10.20
2023-04-15T00:37:29.441Z,5.00
2023-04-15T00:39:39.431Z,6.30
2023-04-15T00:41:49.079Z,2.50
2023-04-15T00:43:59.080Z,6.50
2023-04-15T00:46:09.926Z,2.50
2023-04-15T00:48:20.561Z,2.50
2023-04-15T00:50:30.602Z,2.10
2023-04-15T00:52:41.108Z,3.50
2023-04-15T00:54:51.814Z,1.30
2023-04-15T00:57:01.554Z,1.50
2023-04-15T00:59:12.244Z,4.40
2023-04-15T01:01:26.508Z,4.20
2023-04-15T01:03:37.126Z,4.30
2023-04-15T01:05:47.385Z,6.60
2023-04-15T01:07:57.243Z,4.40
2023-04-15T01:10:07.711Z,2.70
2023-04-15T01:12:19.499Z,2.50
2023-04-15T01:14:29.520Z,2.20
2023-04-15T01:16:40.491Z,1.40
2023-04-15T01:18:51.457Z,1.60
2023-04-15T01:21:02.765Z,1.50
2023-04-15T01:23:14.272Z,1.10
2023-04-15T01:25:30.150Z,1.60
2023-04-15T01:27:41.513Z,1.50
2023-04-15T01:29:52.174Z,1.90
2023-04-15T01:32:02.622Z,3.80
2023-04-15T01:34:12.760Z,2.50
2023-04-15T01:36:22.665Z,1.40
2023-04-15T01:38:36.841Z,2.50
2023-04-15T01:40:46.500Z,1.80
2023-04-15T01:42:56.429Z,1.30
2023-04-15T01:45:06.302Z,1.60
2023-04-15T01:47:19.127Z,2.80
2023-04-15T01:49:30.254Z,2.30
2023-04-15T01:51:40.032Z,2.20
2023-04-15T01:53:50.343Z,7.00
2023-04-15T01:56:00.096Z,7.60
2023-04-15T01:58:09.937Z,3.90
2023-04-15T02:00:20.210Z,8.80
2023-04-15T02:02:31.537Z,18.90
2023-04-15T02:04:41.777Z,4.90
2023-04-15T02:06:52.596Z,3.30
2023-04-15T02:09:04.818Z,3.20
2023-04-15T02:11:14.634Z,4.80
2023-04-15T02:13:24.475Z,5.50
2023-04-15T02:15:34.936Z,5.50
2023-04-15T02:17:46.524Z,5.10
2023-04-15T02:19:59.954Z,9.50
2023-04-15T02:22:12.017Z,8.40
2023-04-15T02:24:21.970Z,5.80
2023-04-15T02:26:33.033Z,2.80
2023-04-15T02:28:43.204Z,3.40
2023-04-15T02:30:54.954Z,2.60
2023-04-15T02:33:06.509Z,5.60
2023-04-15T02:35:16.418Z,4.70
2023-04-15T02:37:28.319Z,4.40
2023-04-15T02:39:38.670Z,2.60
2023-04-15T02:41:52.355Z,4.90
2023-04-15T02:44:02.660Z,2.80
2023-04-15T02:46:15.136Z,1.80
2023-04-15T02:48:25.199Z,5.60
2023-04-15T02:50:35.572Z,1.90
2023-04-15T02:52:46.629Z,3.00
2023-04-15T02:55:00.870Z,1.90
2023-04-15T02:57:12.408Z,2.60
2023-04-15T02:59:22.077Z,2.20
2023-04-15T03:01:31.704Z,1.80
2023-04-15T03:03:41.798Z,2.30
2023-04-15T03:05:51.956Z,5.60
2023-04-15T03:08:02.298Z,3.50
2023-04-15T03:10:13.663Z,2.30
2023-04-15T03:12:24.024Z,3.10
2023-04-15T03:14:35.133Z,11.10
2023-04-15T03:16:45.102Z,3.40
2023-04-15T03:18:59.993Z,7.60
2023-04-15T03:21:09.953Z,2.30
2023-04-15T03:23:20.174Z,1.80
2023-04-15T03:25:31.974Z,6.50
2023-04-15T03:27:43.904Z,2.30
2023-04-15T03:29:54.125Z,1.90
2023-04-15T03:32:05.348Z,2.40
2023-04-15T03:34:19.555Z,1.80
2023-04-15T03:36:30.747Z,1.30
2023-04-15T03:38:40.752Z,1.90
2023-04-15T03:40:51.245Z,1.50
2023-04-15T03:43:00.988Z,11.40
2023-04-15T03:45:12.882Z,3.10
2023-04-15T03:47:23.067Z,3.30
2023-04-15T03:49:33.196Z,9.70
2023-04-15T03:51:43.536Z,16.20
2023-04-15T03:53:54.076Z,10.90
2023-04-15T03:56:04.197Z,4.80
2023-04-15T03:58:13.904Z,8.40
2023-04-15T04:00:24.008Z,3.10
2023-04-15T04:02:33.879Z,3.70
2023-04-15T04:04:44.312Z,5.30
2023-04-15T04:06:54.406Z,6.30
2023-04-15T04:09:04.229Z,3.40
2023-04-15T04:11:14.397Z,6.60
2023-04-15T04:13:24.580Z,3.70
2023-04-15T04:15:34.770Z,4.40
2023-04-15T04:17:44.598Z,2.80
2023-04-15T04:19:54.927Z,4.00
2023-04-15T04:22:04.826Z,1.90
2023-04-15T04:24:14.739Z,4.90
2023-04-15T04:26:24.736Z,1.70
2023-04-15T04:28:35.778Z,1.80
2023-04-15T04:30:45.832Z,4.30
2023-04-15T04:32:55.896Z,1.70
2023-04-15T04:35:05.725Z,1.40
2023-04-15T04:37:15.633Z,1.20
2023-04-15T04:39:26.483Z,1.30
2023-04-15T04:41:37.164Z,1.20
2023-04-15T04:43:46.962Z,1.00
2023-04-15T04:45:56.996Z,1.30
2023-04-15T04:48:07.513Z,1.20
2023-04-15T04:50:17.418Z,1.00
2023-04-15T04:52:27.122Z,1.20
2023-04-15T04:54:37.182Z,1.30
2023-04-15T04:56:46.953Z,1.00
2023-04-15T04:58:56.598Z,1.60
2023-04-15T05:01:06.826Z,1.00
2023-04-15T05:03:17.144Z,0.90
2023-04-15T05:05:27.538Z,1.80
2023-04-15T05:07:37.763Z,4.30
2023-04-15T05:09:47.502Z,5.20
2023-04-15T05:11:58.142Z,5.30
2023-04-15T05:14:08.924Z,7.30
2023-04-15T05:16:19.109Z,6.00
2023-04-15T05:18:29.817Z,5.50
2023-04-15T05:20:39.721Z,4.30
2023-04-15T05:22:49.815Z,3.40
2023-04-15T05:24:59.771Z,1.40
2023-04-15T05:27:11.227Z,1.30
2023-04-15T05:29:21.386Z,1.20
2023-04-15T05:31:31.247Z,1.70
2023-04-15T05:33:41.289Z,0.80
2023-04-15T05:35:51.054Z,0.60
2023-04-15T05:38:01.076Z,0.70
2023-04-15T05:40:12.516Z,0.60
2023-04-15T05:42:22.555Z,0.70
2023-04-15T05:44:32.365Z,0.70
2023-04-15T05:46:42.499Z,1.40
2023-04-15T05:48:53.342Z,0.60
2023-04-15T05:51:04.290Z,0.80
2023-04-15T05:53:14.206Z,0.90
2023-04-15T05:55:24.154Z,0.70
2023-04-15T05:57:34.244Z,0.80
2023-04-15T05:59:45.432Z,0.80
2023-04-15T06:01:55.842Z,0.60
2023-04-15T06:04:05.659Z,0.70
2023-04-15T06:06:15.945Z,0.80
2023-04-15T06:08:25.644Z,0.50
2023-04-15T06:10:37.228Z,0.50
2023-04-15T06:12:48.320Z,0.40
2023-04-15T06:15:00.030Z,0.50
2023-04-15T06:17:10.245Z,0.50
2023-04-15T06:19:20.188Z,0.50
2023-04-15T06:21:30.061Z,0.70
2023-04-15T06:23:41.521Z,0.50
2023-04-15T06:25:51.263Z,0.50
2023-04-15T06:28:00.785Z,0.40
2023-04-15T06:30:12.981Z,0.50
2023-04-15T06:32:23.046Z,0.60
2023-04-15T06:34:32.954Z,0.60
2023-04-15T06:36:42.482Z,0.80
2023-04-15T06:38:52.413Z,0.50
2023-04-15T06:41:05.246Z,0.40
2023-04-15T06:43:15.876Z,0.50
2023-04-15T06:45:25.638Z,0.50
2023-04-15T06:47:35.694Z,0.50
2023-04-15T06:49:45.534Z,0.90
2023-04-15T06:51:55.634Z,0.70
2023-04-15T06:54:06.693Z,0.80
2023-04-15T06:56:16.353Z,0.90
2023-04-15T06:58:26.282Z,0.90
2023-04-15T07:00:36.413Z,0.90
2023-04-15T07:02:47.300Z,0.60
2023-04-15T07:04:57.391Z,0.70
2023-04-15T07:07:07.421Z,0.70
2023-04-15T07:09:17.121Z,0.60
2023-04-15T07:11:27.759Z,0.70
2023-04-15T07:13:37.949Z,0.70
2023-04-15T07:15:47.679Z,0.60
2023-04-15T07:17:57.507Z,0.50
2023-04-15T07:20:08.008Z,0.50
2023-04-15T07:22:17.598Z,0.60
2023-04-15T07:24:27.382Z,0.40
2023-04-15T07:26:37.277Z,0.60
2023-04-15T07:28:47.935Z,0.70
2023-04-15T07:30:57.830Z,0.70
2023-04-15T07:33:08.402Z,1.70
2023-04-15T07:35:18.171Z,0.60
2023-04-15T07:37:28.983Z,0.50
2023-04-15T07:39:38.692Z,0.60
2023-04-15T07:41:49.516Z,0.60
2023-04-15T07:44:00.059Z,0.90
2023-04-15T07:46:10.745Z,1.70
2023-04-15T07:48:20.764Z,2.50
2023-04-15T07:50:30.714Z,1.10
2023-04-15T07:52:40.925Z,0.60
2023-04-15T07:54:50.795Z,0.50
2023-04-15T07:57:00.925Z,0.50
2023-04-15T07:59:10.582Z,0.40
2023-04-15T08:01:20.408Z,1.40
2023-04-15T08:03:30.235Z,0.40
2023-04-15T08:05:40.114Z,0.60
2023-04-15T08:07:50.030Z,0.50
2023-04-15T08:09:59.709Z,0.50
2023-04-15T08:12:13.261Z,0.60
2023-04-15T08:14:23.123Z,0.80
2023-04-15T08:16:33.549Z,0.50
2023-04-15T08:18:43.765Z,1.70
2023-04-15T08:20:53.743Z,0.40
2023-04-15T08:23:03.747Z,0.90
2023-04-15T08:25:13.830Z,1.40
2023-04-15T08:27:23.679Z,0.80
2023-04-15T08:29:34.239Z,1.00
2023-04-15T08:31:45.230Z,1.40
2023-04-15T08:33:57.306Z,0.90
2023-04-15T08:36:08.058Z,0.90
2023-04-15T08:38:18.318Z,0.90
2023-04-15T08:40:37.162Z,1.00
2023-04-15T08:42:51.185Z,1.70
2023-04-15T08:45:01.392Z,0.80
2023-04-15T08:47:14.454Z,0.80
2023-04-15T08:49:29.115Z,0.80
2023-04-15T08:51:39.351Z,0.70
2023-04-15T08:53:49.624Z,0.40
2023-04-15T08:56:04.826Z,0.40
2023-04-15T08:58:14.783Z,0.50
2023-04-15T09:00:25.536Z,0.50
2023-04-15T09:02:35.992Z,1.10
2023-04-15T09:04:45.952Z,1.80
2023-04-15T09:06:59.081Z,1.30
2023-04-15T09:09:09.312Z,0.90
2023-04-15T09:11:20.288Z,1.30
2023-04-15T09:13:31.930Z,1.10
2023-04-15T09:15:42.428Z,0.90
2023-04-15T09:17:52.217Z,1.10
2023-04-15T09:20:15.099Z,0.70
2023-04-15T09:24:41.334Z,1.30
2023-04-15T09:26:54.234Z,1.00
2023-04-15T09:29:09.596Z,1.00
2023-04-15T09:31:21.279Z,1.00
2023-04-15T09:33:32.083Z,1.10
2023-04-15T09:35:42.946Z,1.20
2023-04-15T09:37:53.442Z,1.10
2023-04-15T09:40:03.451Z,0.80
2023-04-15T09:42:13.001Z,0.60
2023-04-15T09:44:31.623Z,0.60
2023-04-15T09:46:47.784Z,0.50
2023-04-15T09:49:12.123Z,0.80
2023-04-15T09:51:35.548Z,0.60
2023-04-15T09:53:45.182Z,0.50
2023-04-15T09:55:59.167Z,0.60
2023-04-15T09:58:19.667Z,0.50
2023-04-15T10:00:31.774Z,0.60
2023-04-15T10:04:54.199Z,0.60
2023-04-15T10:07:05.863Z,0.40
2023-04-15T10:09:15.700Z,0.50
2023-04-15T10:11:27.488Z,0.50
2023-04-15T10:13:39.734Z,0.40
2023-04-15T10:15:52.536Z,0.50
2023-04-15T10:18:05.131Z,0.40
2023-04-15T10:22:25.146Z,0.40
2023-04-15T10:24:35.775Z,0.40
2023-04-15T10:26:46.615Z,0.40
2023-04-15T10:28:59.540Z,0.40
2023-04-15T10:31:10.326Z,0.40
2023-04-15T10:33:22.155Z,0.40
2023-04-15T10:35:32.675Z,0.40
2023-04-15T10:37:43.164Z,0.40
2023-04-15T10:39:53.044Z,0.30
2023-04-15T10:42:12.891Z,0.50
2023-04-15T10:44:22.667Z,0.30
2023-04-15T10:46:41.274Z,0.40
2023-04-15T10:48:55.674Z,0.50
2023-04-15T10:51:06.706Z,0.40
2023-04-15T10:53:28.911Z,0.40
2023-04-15T10:55:39.187Z,0.40
2023-04-15T10:57:53.596Z,1.00
2023-04-15T11:00:14.527Z,0.40
2023-04-15T11:02:24.607Z,0.40
2023-04-15T11:04:55.549Z,0.60
2023-04-15T11:07:11.404Z,0.70
2023-04-15T11:09:37.273Z,1.40
2023-04-15T11:12:12.747Z,0.80
2023-04-15T11:14:22.884Z,1.20
2023-04-15T11:16:32.774Z,1.50
2023-04-15T11:18:42.682Z,0.90
2023-04-15T11:20:55.103Z,1.30
2023-04-15T11:23:14.745Z,0.80
2023-04-15T11:25:29.781Z,1.20
2023-04-15T11:27:39.562Z,1.20
2023-04-15T11:29:49.430Z,3.50
2023-04-15T11:32:09.096Z,1.10
2023-04-15T11:34:26.840Z,0.80
2023-04-15T11:36:37.452Z,1.30
2023-04-15T11:38:50.919Z,0.90
2023-04-15T11:41:00.932Z,1.00
2023-04-15T11:43:12.083Z,0.70
2023-04-15T11:45:22.484Z,1.40
2023-04-15T11:47:32.164Z,1.10
2023-04-15T11:49:41.967Z,0.90
2023-04-15T11:51:51.833Z,1.40
2023-04-15T11:54:01.650Z,1.00
2023-04-15T11:56:13.433Z,1.50
2023-04-15T11:58:25.180Z,1.50
2023-04-15T12:00:35.289Z,0.80
2023-04-15T12:02:45.245Z,0.90
2023-04-15T12:05:04.780Z,1.20
2023-04-15T12:07:14.863Z,1.10
2023-04-15T12:09:25.676Z,2.50
2023-04-15T12:11:37.890Z,0.80
2023-04-15T12:13:50.702Z,0.60
2023-04-15T12:16:01.719Z,0.60
2023-04-15T12:18:21.478Z,0.50
2023-04-15T12:20:32.849Z,0.50
2023-04-15T12:22:43.215Z,0.80
2023-04-15T12:24:58.832Z,0.50
2023-04-15T12:27:09.637Z,0.70
2023-04-15T12:29:20.100Z,0.50
2023-04-15T12:31:30.101Z,0.60
2023-04-15T12:33:39.956Z,0.60
2023-04-15T12:35:49.494Z,0.50
2023-04-15T12:37:59.368Z,0.60
2023-04-15T12:40:13.386Z,0.60
2023-04-15T12:42:23.249Z,0.70
2023-04-15T12:44:33.513Z,0.60
2023-04-15T12:46:43.226Z,0.70
2023-04-15T12:48:54.701Z,0.40
2023-04-15T12:51:07.155Z,0.60
2023-04-15T12:53:20.180Z,0.60
2023-04-15T12:55:30.995Z,0.80
2023-04-15T12:57:40.655Z,0.60
2023-04-15T12:59:50.703Z,0.60
2023-04-15T13:02:01.344Z,0.70
2023-04-15T13:04:11.329Z,0.50
2023-04-15T13:06:21.142Z,0.50
2023-04-15T13:08:30.581Z,0.40
2023-04-15T13:10:41.302Z,0.50
2023-04-15T13:12:54.137Z,0.60
2023-04-15T13:15:05.752Z,0.50
2023-04-15T13:17:15.567Z,0.40
2023-04-15T13:19:25.553Z,0.40
2023-04-15T13:21:36.544Z,0.60
2023-04-15T13:23:47.264Z,0.80
2023-04-15T13:25:56.896Z,0.50
2023-04-15T13:28:07.186Z,0.60
2023-04-15T13:30:17.727Z,1.10
2023-04-15T13:32:27.992Z,0.60
2023-04-15T13:34:37.907Z,0.60
2023-04-15T13:36:47.855Z,0.50
2023-04-15T13:38:57.576Z,0.70
2023-04-15T13:41:07.607Z,0.60
2023-04-15T13:43:17.976Z,0.50
2023-04-15T13:45:28.292Z,0.60
2023-04-15T13:47:38.407Z,0.50
2023-04-15T13:49:48.496Z,0.50
2023-04-15T13:51:58.399Z,0.60
2023-04-15T13:54:08.559Z,0.50
2023-04-15T13:56:18.797Z,0.60
2023-04-15T13:58:28.334Z,0.60
2023-04-15T14:00:38.173Z,0.50
2023-04-15T14:02:48.623Z,0.50
2023-04-15T14:04:58.576Z,0.50
2023-04-15T14:07:08.595Z,0.60
2023-04-15T14:09:18.898Z,0.60
2023-04-15T14:11:28.848Z,0.70
2023-04-15T14:13:38.672Z,0.70
2023-04-15T14:15:49.534Z,0.60
2023-04-15T14:17:59.888Z,0.50
2023-04-15T14:20:12.211Z,0.70
2023-04-15T14:22:22.071Z,0.90
2023-04-15T14:24:32.187Z,0.80
2023-04-15T14:26:41.841Z,0.60
2023-04-15T14:28:51.664Z,0.60
2023-04-15T14:31:02.408Z,0.60
2023-04-15T14:33:12.383Z,0.80
2023-04-15T14:35:22.229Z,0.60
2023-04-15T14:37:32.636Z,0.50
2023-04-15T14:39:42.320Z,0.60
2023-04-15T14:41:52.047Z,0.60
2023-04-15T14:44:01.920Z,0.70
2023-04-15T14:46:12.700Z,1.60
2023-04-15T14:48:22.301Z,0.80
2023-04-15T14:50:32.741Z,0.90
2023-04-15T14:52:42.823Z,0.70
2023-04-15T14:54:52.663Z,0.70
2023-04-15T14:57:03.711Z,1.00
2023-04-15T14:59:13.413Z,0.90
2023-04-15T15:01:23.157Z,0.80
2023-04-15T15:03:33.230Z,1.00
2023-04-15T15:05:44.460Z,0.80
2023-04-15T15:07:54.684Z,0.80
2023-04-15T15:10:04.767Z,1.00
2023-04-15T15:12:14.754Z,1.40
2023-04-15T15:14:24.677Z,1.90
2023-04-15T15:16:34.931Z,1.20
2023-04-15T15:18:44.874Z,2.00
2023-04-15T15:20:55.005Z,1.10
2023-04-15T15:23:04.879Z,1.20
2023-04-15T15:25:14.855Z,1.10
2023-04-15T15:27:24.535Z,1.10
2023-04-15T15:29:34.134Z,1.80
2023-04-15T15:31:44.307Z,1.00
2023-04-15T15:33:54.094Z,0.90
2023-04-15T15:36:03.901Z,1.10
2023-04-15T15:38:15.660Z,1.20
2023-04-15T15:40:26.116Z,1.00
2023-04-15T15:42:36.922Z,1.60
2023-04-15T15:44:46.822Z,2.20
2023-04-15T15:46:58.244Z,2.50
2023-04-15T15:49:08.625Z,1.50
2023-04-15T15:51:18.094Z,2.40
2023-04-15T15:53:27.977Z,2.40
2023-04-15T15:55:37.887Z,1.80
2023-04-15T15:57:47.655Z,1.40
2023-04-15T16:00:10.284Z,1.80
2023-04-15T16:02:40.014Z,1.30
2023-04-15T16:04:53.005Z,1.40
2023-04-15T16:07:03.314Z,1.60
2023-04-15T16:09:12.984Z,1.80
2023-04-15T16:11:22.703Z,2.30
2023-04-15T16:13:32.903Z,1.40
2023-04-15T16:15:42.811Z,2.10
2023-04-15T16:17:52.697Z,1.30
2023-04-15T16:20:05.893Z,1.20
2023-04-15T16:22:15.964Z,1.40
2023-04-15T16:24:26.283Z,1.10
2023-04-15T16:26:36.014Z,1.50
2023-04-15T16:28:46.076Z,1.30
2023-04-15T16:30:55.983Z,0.90
2023-04-15T16:33:05.932Z,1.60
2023-04-15T16:35:17.344Z,1.80
2023-04-15T16:37:27.739Z,2.20
2023-04-15T16:39:37.755Z,2.20
2023-04-15T16:41:47.623Z,2.30
2023-04-15T16:43:57.509Z,1.60
2023-04-15T16:46:07.160Z,1.90
2023-04-15T16:48:17.223Z,1.40
2023-04-15T16:50:27.292Z,1.90
2023-04-15T16:52:37.627Z,1.00
2023-04-15T16:54:47.883Z,1.30
2023-04-15T16:56:57.821Z,1.00
2023-04-15T16:59:07.627Z,1.70
2023-04-15T17:01:17.425Z,1.10
2023-04-15T17:03:27.392Z,1.50
2023-04-15T17:05:37.674Z,2.00
2023-04-15T17:07:47.466Z,1.60
2023-04-15T17:09:57.513Z,1.80
2023-04-15T17:12:07.925Z,1.60
2023-04-15T17:14:17.523Z,1.50
2023-04-15T17:16:27.157Z,2.00
2023-04-15T17:18:37.281Z,2.10
2023-04-15T17:20:47.642Z,3.80
2023-04-15T17:22:58.311Z,2.20
2023-04-15T17:25:09.561Z,2.30
2023-04-15T17:27:19.440Z,2.30
2023-04-15T17:29:29.429Z,2.50
2023-04-15T17:31:39.160Z,1.70
2023-04-15T17:34:00.859Z,3.00
2023-04-15T17:36:17.940Z,1.40
2023-04-15T17:38:27.792Z,3.10
2023-04-15T17:40:37.722Z,2.60
2023-04-15T17:42:47.908Z,1.70
2023-04-15T17:44:57.857Z,1.50
2023-04-15T17:47:07.982Z,2.00
2023-04-15T17:49:18.042Z,1.90
2023-04-15T17:51:28.683Z,1.80
2023-04-15T17:53:49.177Z,1.70
2023-04-15T17:55:59.411Z,2.50
2023-04-15T17:58:09.665Z,2.40
2023-04-15T18:00:20.641Z,2.10
2023-04-15T18:02:30.949Z,2.00
2023-04-15T18:04:41.670Z,1.60
2023-04-15T18:06:51.843Z,3.00
2023-04-15T18:09:02.106Z,2.20
2023-04-15T18:11:13.054Z,2.30
2023-04-15T18:13:22.550Z,2.40
2023-04-15T18:15:32.740Z,2.10
2023-04-15T18:17:43.140Z,1.90
2023-04-15T18:19:53.261Z,2.30
2023-04-15T18:22:04.484Z,1.40
2023-04-15T18:24:16.079Z,2.00
2023-04-15T18:26:26.261Z,2.40
2023-04-15T18:28:36.221Z,2.80
2023-04-15T18:30:46.670Z,2.00
2023-04-15T18:32:57.067Z,2.50
2023-04-15T18:35:07.872Z,3.20
2023-04-15T18:37:17.694Z,2.30
2023-04-15T18:39:27.794Z,2.50
2023-04-15T18:41:37.633Z,2.10
2023-04-15T18:43:47.356Z,2.10
2023-04-15T18:45:57.302Z,1.90
2023-04-15T18:48:07.556Z,2.00
2023-04-15T18:50:18.450Z,2.30
2023-04-15T18:52:28.356Z,1.90
2023-04-15T18:54:39.223Z,2.40
2023-04-15T18:56:49.560Z,2.90
2023-04-15T18:59:26.317Z,2.50
2023-04-15T19:01:29.876Z,1.40
2023-04-15T19:03:39.832Z,1.60
2023-04-15T19:05:49.671Z,2.00
2023-04-15T19:07:59.946Z,2.40
2023-04-15T19:10:11.052Z,1.60
2023-04-15T19:12:21.265Z,2.10
2023-04-15T19:14:31.162Z,1.70
2023-04-15T19:16:41.389Z,1.50
2023-04-15T19:18:51.571Z,1.80
2023-04-15T19:21:01.394Z,1.30
2023-04-15T19:23:12.111Z,1.00
2023-04-15T19:25:22.468Z,1.30
2023-04-15T19:27:32.633Z,2.40
2023-04-15T19:29:42.392Z,1.30
2023-04-15T19:31:52.057Z,1.70
2023-04-15T19:34:01.965Z,1.80
2023-04-15T19:36:12.417Z,1.90
2023-04-15T19:38:22.305Z,2.70
2023-04-15T19:40:32.803Z,2.00
2023-04-15T19:42:43.237Z,2.20
2023-04-15T19:44:53.439Z,2.60
2023-04-15T19:47:03.005Z,2.10
2023-04-15T19:49:12.836Z,2.90
2023-04-15T19:51:22.575Z,2.80
2023-04-15T19:53:32.264Z,1.70
2023-04-15T19:55:43.117Z,1.50
2023-04-15T19:57:53.335Z,2.40
2023-04-15T20:00:03.692Z,2.20
2023-04-15T20:02:15.222Z,2.40
2023-04-15T20:04:25.270Z,1.70
2023-04-15T20:06:35.106Z,1.50
2023-04-15T20:08:44.828Z,2.10
2023-04-15T20:10:55.124Z,2.60
2023-04-15T20:13:05.037Z,2.30
2023-04-15T20:15:15.326Z,1.70
2023-04-15T20:17:25.517Z,2.20
2023-04-15T20:19:36.087Z,2.00
2023-04-15T20:21:46.362Z,2.10
2023-04-15T20:23:56.482Z,1.80
2023-04-15T20:26:06.907Z,2.50
2023-04-15T20:28:18.687Z,2.30
2023-04-15T20:30:29.554Z,2.60
2023-04-15T20:32:39.244Z,2.20
2023-04-15T20:34:49.181Z,2.60
2023-04-15T20:36:59.661Z,2.40
2023-04-15T20:39:09.945Z,2.70
2023-04-15T20:41:19.618Z,2.20
2023-04-15T20:43:29.861Z,3.30
2023-04-15T20:45:40.826Z,2.50
2023-04-15T20:47:50.904Z,3.00
2023-04-15T20:50:00.558Z,3.00
2023-04-15T20:52:11.661Z,3.10
2023-04-15T20:54:21.441Z,3.00
2023-04-15T20:56:31.789Z,2.20
2023-04-15T20:58:42.058Z,2.10
2023-04-15T21:00:53.661Z,3.10
2023-04-15T21:03:05.633Z,2.10
2023-04-15T21:05:15.805Z,2.20
2023-04-15T21:07:25.930Z,2.70
2023-04-15T21:09:36.222Z,2.20
2023-04-15T21:14:02.697Z,3.30
2023-04-15T21:16:12.675Z,2.90
2023-04-15T21:18:22.804Z,2.10
2023-04-15T21:20:32.893Z,3.30
2023-04-15T21:22:42.652Z,2.80
2023-04-15T21:24:52.737Z,2.40
2023-04-15T21:27:02.682Z,2.50
2023-04-15T21:29:13.620Z,3.40
2023-04-15T21:31:24.819Z,2.20
2023-04-15T21:33:34.915Z,2.20
2023-04-15T21:35:44.737Z,2.50
2023-04-15T21:37:54.346Z,2.00
2023-04-15T21:40:04.814Z,2.80
2023-04-15T21:42:14.549Z,2.80
2023-04-15T21:44:24.425Z,2.60
2023-04-15T21:46:35.464Z,2.50
2023-04-15T21:48:45.775Z,2.40
2023-04-15T21:50:59.487Z,3.20
2023-04-15T21:53:11.897Z,2.60
2023-04-15T21:55:21.515Z,4.10
2023-04-15T21:57:31.687Z,2.70
2023-04-15T21:59:41.855Z,2.60
2023-04-15T22:01:51.900Z,3.00
2023-04-15T22:04:02.232Z,2.70
2023-04-15T22:06:12.387Z,2.70
2023-04-15T22:08:22.115Z,2.90
2023-04-15T22:10:31.947Z,2.40
2023-04-15T22:12:44.416Z,2.50
2023-04-15T22:17:02.747Z,2.10
2023-04-15T22:19:12.654Z,2.00
2023-04-15T22:21:24.071Z,2.60
2023-04-15T22:23:33.704Z,2.10
2023-04-15T22:25:43.548Z,2.50
2023-04-15T22:27:53.306Z,2.20
2023-04-15T22:30:03.550Z,3.30
2023-04-15T22:32:13.364Z,3.50
2023-04-15T22:34:23.412Z,2.80
2023-04-15T22:36:34.908Z,3.10
2023-04-15T22:38:44.852Z,2.80
2023-04-15T22:40:55.429Z,3.40
2023-04-15T22:43:06.681Z,2.60
2023-04-15T22:45:17.036Z,2.60
2023-04-15T22:47:26.905Z,2.10
2023-04-15T22:49:37.220Z,2.20
2023-04-15T22:51:46.988Z,2.60
2023-04-15T22:53:56.952Z,2.30
2023-04-15T22:56:07.703Z,3.70
2023-04-15T22:58:18.750Z,2.50
2023-04-15T23:00:28.915Z,3.70
2023-04-15T23:02:38.892Z,2.90
2023-04-15T23:04:49.054Z,2.50
2023-04-15T23:06:59.072Z,2.80
2023-04-15T23:09:09.214Z,2.60
2023-04-15T23:11:19.381Z,2.50
2023-04-15T23:13:29.707Z,2.30
2023-04-15T23:15:39.969Z,2.70
2023-04-15T23:17:49.963Z,2.60
2023-04-15T23:20:00.101Z,2.00
2023-04-15T23:22:11.151Z,2.80
2023-04-15T23:24:21.006Z,2.30
2023-04-15T23:26:31.562Z,3.40
2023-04-15T23:28:41.530Z,2.20
2023-04-15T23:30:51.647Z,2.60
2023-04-15T23:33:02.244Z,3.40
2023-04-15T23:35:13.278Z,3.10
2023-04-15T23:37:23.261Z,3.50
2023-04-15T23:39:32.972Z,2.30
2023-04-15T23:41:42.782Z,2.60
2023-04-15T23:43:52.450Z,2.60
2023-04-15T23:46:02.445Z,2.30
2023-04-15T23:48:12.601Z,3.40
2023-04-15T23:50:22.502Z,2.40
2023-04-15T23:52:32.279Z,3.50
2023-04-15T23:54:41.982Z,2.90
2023-04-15T23:56:52.102Z,2.70
2023-04-15T23:59:02.062Z,3.50
